Time;durP1;ratioP1;P1;durP2;ratioP2;P2;SDS_P1;SDS_P2;PMS_P1;PMS_P2;Temp;Humidity;BMP_temperature;BMP_pressure;BME280_temperature;BME280_humidity;BME280_pressure;Samples;Min_cycle;Max_cycle;Signal;HPM_P1;HPM_P2
2022/10/05 00:01:31;;;;;;;;;;;;;;;9.11;100.00;99000.23;1714931;82;25133;-93
2022/10/05 00:04:17;;;;;;;;;;;;;;;9.19;100.00;99015.00;1724588;82;21950;-92
2022/10/05 00:06:47;;;;;;;;;;;;;;;9.09;100.00;98997.70;1721445;82;26163;-92
2022/10/05 00:09:21;;;;;;;;;;;;;;;9.16;100.00;99012.56;1697237;83;24363;-92
2022/10/05 00:12:03;;;;;;;;;;;;;;;9.17;100.00;99004.63;1720656;83;20352;-92
2022/10/05 00:14:41;;;;;;;;;;;;;;;9.15;100.00;99010.87;1716049;83;24779;-91
2022/10/05 00:17:20;;;;;;;;;;;;;;;9.13;100.00;99010.11;1716829;83;22051;-91
2022/10/05 00:20:03;;;;;;;;;;;;;;;9.13;100.00;99007.50;1719345;83;26079;-92
2022/10/05 00:22:36;;;;;;;;;;;;;;;9.13;100.00;99011.41;1687665;83;24504;-92
2022/10/05 00:25:03;;;;;;;;;;;;;;;9.09;100.00;98999.46;1685682;84;20291;-93
2022/10/05 00:27:37;;;;;;;;;;;;;;;9.09;100.00;98995.55;1701041;82;24817;-92
2022/10/05 00:30:17;;;;;;;;;;;;;;;9.08;100.00;99000.38;1672687;85;22068;-91
2022/10/05 00:32:48;;;;;;;;;;;;;;;9.08;100.00;98995.16;1671982;85;26155;-92
2022/10/05 00:35:25;;;;;;;;;;;;;;;9.04;100.00;99001.48;1684536;84;24515;-92
2022/10/05 00:38:05;;;;;;;;;;;;;;;9.02;100.00;98994.19;1690212;84;20206;-92
2022/10/05 00:40:45;;;;;;;;;;;;;;;9.02;100.00;98994.19;1692257;83;24784;-90
2022/10/05 00:43:20;;;;;;;;;;;;;;;9.01;100.00;98993.34;1696553;84;22801;-90
2022/10/05 00:46:05;;;;;;;;;;;;;;;9.00;100.00;98994.75;1696136;84;26003;-90
2022/10/05 00:48:37;;;;;;;;;;;;;;;8.99;100.00;98991.76;1692871;84;24585;-90
2022/10/05 00:51:12;;;;;;;;;;;;;;;8.98;100.00;98992.22;1706299;84;20180;-91
2022/10/05 00:53:47;;;;;;;;;;;;;;;8.98;100.00;99002.66;1685110;84;38103;-91
2022/10/05 00:59:07;;;;;;;;;;;;;;;8.99;100.00;98993.06;1694631;84;26181;-90
2022/10/05 01:02:05;;;;;;;;;;;;;;;9.02;100.00;98997.64;1705855;82;24258;-90
2022/10/05 01:04:37;;;;;;;;;;;;;;;9.00;100.00;98993.45;1680952;84;20312;-91
2022/10/05 01:10:26;;;;;;;;;;;;;;;8.92;100.00;98973.43;1722655;82;22894;-91
2022/10/05 01:13:21;;;;;;;;;;;;;;;8.90;100.00;98969.59;1689542;83;26020;-90
2022/10/05 01:19:11;;;;;;;;;;;;;;;8.95;100.00;98960.20;1722594;83;20470;-91
2022/10/05 01:24:32;;;;;;;;;;;;;;;8.88;100.00;98953.65;1700344;84;22603;-92
2022/10/05 01:27:22;;;;;;;;;;;;;;;8.88;100.00;98947.13;1717365;83;26254;-92
2022/10/05 01:30:07;;;;;;;;;;;;;;;8.88;100.00;98949.73;1723737;83;24465;-92
2022/10/05 01:33:00;;;;;;;;;;;;;;;8.87;100.00;98941.06;1695077;83;20321;-92
2022/10/05 01:35:54;;;;;;;;;;;;;;;8.89;100.00;98943.59;1694092;83;24834;-92
2022/10/05 01:41:02;;;;;;;;;;;;;;;8.96;100.00;98939.70;1700367;83;25990;-91
2022/10/05 01:47:06;;;;;;;;;;;;;;;8.97;100.00;98941.39;1708492;83;20441;-92
2022/10/05 01:49:38;;;;;;;;;;;;;;;8.96;100.00;98935.78;1725019;83;25526;-93
2022/10/05 01:55:21;;;;;;;;;;;;;;;9.00;100.00;98941.23;1690683;83;26009;-93
2022/10/05 01:58:07;;;;;;;;;;;;;;;9.02;100.00;98948.50;1693262;84;24499;-92
2022/10/05 02:00:50;;;;;;;;;;;;;;;9.04;100.00;98946.20;1728481;83;20225;-93
2022/10/05 02:03:35;;;;;;;;;;;;;;;9.08;100.00;98954.23;1709755;83;24920;-92
2022/10/05 02:06:03;;;;;;;;;;;;;;;9.13;100.00;98944.83;1694705;83;22206;-93
2022/10/05 02:08:43;;;;;;;;;;;;;;;9.15;100.00;98940.38;1715974;82;26041;-91
2022/10/05 02:11:13;;;;;;;;;;;;;;;9.15;100.00;98933.39;1689377;84;25400;-92
2022/10/05 02:13:56;;;;;;;;;;;;;;;9.18;100.00;98933.66;1717503;83;20194;-92
2022/10/05 02:16:34;;;;;;;;;;;;;;;9.17;100.00;98925.45;1690787;83;24646;-92
2022/10/05 02:19:19;;;;;;;;;;;;;;;9.16;100.00;98923.79;1685365;84;22115;-93
2022/10/05 02:21:47;;;;;;;;;;;;;;;9.15;100.00;98920.80;1711208;83;26218;-92
2022/10/05 02:24:34;;;;;;;;;;;;;;;9.16;100.00;98906.33;1693374;83;24409;-92
2022/10/05 02:27:13;;;;;;;;;;;;;;;9.19;100.00;98903.55;1694690;84;20531;-93
2022/10/05 02:30:01;;;;;;;;;;;;;;;9.18;100.00;98903.63;1686493;84;25042;-92
2022/10/05 02:32:45;;;;;;;;;;;;;;;9.14;100.00;98900.83;1686112;84;22157;-92
2022/10/05 02:35:35;;;;;;;;;;;;;;;9.14;100.00;98893.00;1684098;84;25953;-92
2022/10/05 02:38:07;;;;;;;;;;;;;;;9.14;100.00;98887.31;1686095;84;24443;-91
2022/10/05 02:40:42;;;;;;;;;;;;;;;9.17;100.00;98876.67;1691106;83;20201;-92
2022/10/05 02:46:20;;;;;;;;;;;;;;;9.15;100.00;98878.55;1716391;83;20186;-92
2022/10/05 02:48:57;;;;;;;;;;;;;;;9.16;100.00;98882.83;1695759;83;26039;-93
2022/10/05 02:51:41;;;;;;;;;;;;;;;9.18;100.00;98878.83;1693860;84;24406;-92
2022/10/05 02:57:27;;;;;;;;;;;;;;;9.17;100.00;98884.97;1689040;83;24799;-92
2022/10/05 02:59:55;;;;;;;;;;;;;;;9.17;100.00;98881.90;1707603;84;21964;-92
2022/10/05 03:02:25;;;;;;;;;;;;;;;9.19;100.00;98880.52;1695486;84;25969;-91
2022/10/05 03:04:56;;;;;;;;;;;;;;;9.18;100.00;98874.45;1719577;83;24401;-92
2022/10/05 03:07:26;;;;;;;;;;;;;;;9.16;100.00;98884.12;1690261;83;20223;-93
2022/10/05 03:10:00;;;;;;;;;;;;;;;9.19;100.00;98879.21;1716175;83;24849;-92
2022/10/05 03:12:33;;;;;;;;;;;;;;;9.21;100.00;98878.67;1672102;85;22708;-93
2022/10/05 03:15:05;;;;;;;;;;;;;;;9.25;100.00;98888.00;1692574;83;21813;-93
2022/10/05 03:17:36;;;;;;;;;;;;;;;9.25;100.00;98885.39;1718446;83;26397;-92
2022/10/05 03:20:31;;;;;;;;;;;;;;;9.28;100.00;98897.41;1714758;83;20214;-93
2022/10/05 03:23:16;;;;;;;;;;;;;;;9.30;100.00;98899.03;1716287;83;24834;-93
2022/10/05 03:25:56;;;;;;;;;;;;;;;9.32;100.00;98895.87;1722648;83;22283;-93
2022/10/05 03:28:46;;;;;;;;;;;;;;;9.34;100.00;98897.06;1715465;83;25961;-93
2022/10/05 03:31:23;;;;;;;;;;;;;;;9.34;100.00;98896.61;1715838;82;24488;-93
2022/10/05 03:34:11;;;;;;;;;;;;;;;9.35;100.00;98902.21;1720500;83;20180;-92
2022/10/05 03:37:09;;;;;;;;;;;;;;;9.37;100.00;98913.89;1715848;83;24742;-93
2022/10/05 03:40:10;;;;;;;;;;;;;;;9.39;100.00;98924.61;1718410;83;22005;-92
2022/10/05 03:49:06;;;;;;;;;;;;;;;9.52;100.00;98936.05;1720879;83;20288;-92
2022/10/05 03:51:53;;;;;;;;;;;;;;;9.54;100.00;98932.90;1724640;83;21167;-92
2022/10/05 03:54:38;;;;;;;;;;;;;;;9.54;100.00;98942.05;1720086;83;21981;-94
2022/10/05 03:57:08;;;;;;;;;;;;;;;9.57;100.00;98943.16;1718852;83;26047;-92
2022/10/05 03:59:47;;;;;;;;;;;;;;;9.60;100.00;98948.69;1719988;82;24404;-93
2022/10/05 04:02:25;;;;;;;;;;;;;;;9.61;100.00;98956.87;1720763;83;20183;-91
2022/10/05 04:04:57;;;;;;;;;;;;;;;9.62;100.00;98948.11;1722101;83;24328;-93
2022/10/05 04:07:35;;;;;;;;;;;;;;;9.62;100.00;98948.95;1722154;81;21996;-92
2022/10/05 04:10:03;;;;;;;;;;;;;;;9.62;100.00;98945.04;1650082;85;26268;-93
2022/10/05 04:12:38;;;;;;;;;;;;;;;9.62;100.00;98937.66;1700197;83;24458;-92
2022/10/05 04:15:18;;;;;;;;;;;;;;;9.54;100.00;98930.28;1707440;83;20239;-93
2022/10/05 04:18:04;;;;;;;;;;;;;;;9.52;100.00;98929.98;1701620;83;25744;-92
2022/10/05 04:20:40;;;;;;;;;;;;;;;9.51;100.00;98922.61;1697268;84;23313;-94
2022/10/05 04:23:26;;;;;;;;;;;;;;;9.53;100.00;98927.29;1702501;82;26182;-92
2022/10/05 04:26:01;;;;;;;;;;;;;;;9.54;100.00;98926.36;1699357;83;24464;-93
2022/10/05 04:28:54;;;;;;;;;;;;;;;9.56;100.00;98919.27;1696197;83;20375;-93
2022/10/05 04:31:37;;;;;;;;;;;;;;;9.56;100.00;98910.58;1667887;85;24920;-93
2022/10/05 04:34:23;;;;;;;;;;;;;;;9.58;100.00;98908.73;1697260;83;21979;-92
2022/10/05 04:36:53;;;;;;;;;;;;;;;9.57;100.00;98905.27;1672379;85;26033;-91
2022/10/05 04:43:03;;;;;;;;;;;;;;;9.54;100.00;98905.92;1686473;83;20242;-93
2022/10/05 04:45:49;;;;;;;;;;;;;;;9.56;100.00;98907.50;1697723;83;24677;-93
2022/10/05 04:48:21;;;;;;;;;;;;;;;9.51;100.00;98906.92;1690050;84;22242;-92
2022/10/05 04:50:58;;;;;;;;;;;;;;;9.49;100.00;98910.09;1649338;85;26022;-92
2022/10/05 04:53:30;;;;;;;;;;;;;;;9.50;100.00;98913.08;1664141;84;25280;-92
2022/10/05 04:56:24;;;;;;;;;;;;;;;9.52;100.00;98913.84;1702617;83;21357;-91
2022/10/05 04:59:09;;;;;;;;;;;;;;;9.52;100.00;98911.23;1700327;83;24844;-91
2022/10/05 05:01:37;;;;;;;;;;;;;;;9.55;100.00;98911.50;1697737;82;21982;-90
2022/10/05 05:04:08;;;;;;;;;;;;;;;9.56;100.00;98918.41;1684959;82;26242;-91
2022/10/05 05:06:59;;;;;;;;;;;;;;;9.57;100.00;98926.17;1695493;83;24452;-92
2022/10/05 05:09:24;;;;;;;;;;;;;;;9.62;100.00;98924.59;1684780;84;20306;-92
2022/10/05 05:11:52;;;;;;;;;;;;;;;9.62;100.00;98921.52;1725484;81;24909;-92
2022/10/05 05:14:39;;;;;;;;;;;;;;;9.64;100.00;98920.13;1705448;82;21964;-92
2022/10/05 05:17:37;;;;;;;;;;;;;;;9.65;100.00;98929.16;1698584;83;26195;-92
2022/10/05 05:26:43;;;;;;;;;;;;;;;9.75;100.00;98920.81;1724327;82;24814;-92
2022/10/05 05:32:47;;;;;;;;;;;;;;;9.76;100.00;98915.50;1688061;83;26018;-92
2022/10/05 05:35:15;;;;;;;;;;;;;;;9.80;100.00;98912.23;1730128;82;24607;-90
2022/10/05 05:37:57;;;;;;;;;;;;;;;9.81;100.00;98908.69;1737538;82;20250;-92
2022/10/05 05:40:45;;;;;;;;;;;;;;;9.83;100.00;98898.97;1736009;82;24840;-91
2022/10/05 05:43:24;;;;;;;;;;;;;;;9.89;100.00;98912.98;1680219;83;21261;-93
2022/10/05 05:46:21;;;;;;;;;;;;;;;9.94;100.00;98907.02;1715001;82;26007;-91
2022/10/05 05:48:59;;;;;;;;;;;;;;;10.00;100.00;98893.11;1737546;82;24579;-91
2022/10/05 05:51:42;;;;;;;;;;;;;;;10.01;100.00;98878.27;1712859;82;20235;-92
2022/10/05 05:54:16;;;;;;;;;;;;;;;10.03;100.00;98890.80;1731370;82;24823;-91
2022/10/05 05:56:48;;;;;;;;;;;;;;;10.05;100.00;98900.21;1699565;82;20498;-93
2022/10/05 05:59:48;;;;;;;;;;;;;;;10.13;100.00;98900.23;1734022;82;26061;-92
2022/10/05 06:02:22;;;;;;;;;;;;;;;10.21;100.00;98911.92;1731942;82;25251;-91
2022/10/05 06:04:52;;;;;;;;;;;;;;;10.29;100.00;98924.55;1733248;82;20260;-91
2022/10/05 06:07:37;;;;;;;;;;;;;;;10.37;100.00;98926.22;1703234;82;24824;-92
2022/10/05 06:10:26;;;;;;;;;;;;;;;10.39;100.00;98921.28;1706252;82;22131;-91
2022/10/05 06:13:06;;;;;;;;;;;;;;;10.46;100.00;98935.67;1737386;82;26019;-92
2022/10/05 06:15:42;;;;;;;;;;;;;;;10.52;100.00;98942.77;1700570;83;24605;-93
2022/10/05 06:21:15;;;;;;;;;;;;;;;10.61;100.00;98943.50;1722619;82;24931;-92
2022/10/05 06:23:45;;;;;;;;;;;;;;;10.70;100.00;98932.45;1736519;82;22090;-92
2022/10/05 06:26:13;;;;;;;;;;;;;;;10.73;100.00;98938.83;1698403;83;26251;-91
2022/10/05 06:29:10;;;;;;;;;;;;;;;10.74;100.00;98937.89;1699896;83;24609;-91
2022/10/05 06:31:38;;;;;;;;;;;;;;;10.78;100.00;98938.91;1717257;82;20166;-93
2022/10/05 06:34:16;;;;;;;;;;;;;;;10.84;100.00;98933.76;1733602;82;24740;-93
2022/10/05 06:36:51;;;;;;;;;;;;;;;10.85;100.00;98923.66;1732208;82;22830;-92
2022/10/05 06:39:22;;;;;;;;;;;;;;;10.86;100.00;98939.25;1705759;83;26705;-93
2022/10/05 06:41:56;;;;;;;;;;;;;;;10.89;100.00;98939.08;1721207;83;24099;-92
2022/10/05 06:44:28;;;;;;;;;;;;;;;10.91;100.00;98941.11;1683576;84;20150;-92
2022/10/05 06:47:13;;;;;;;;;;;;;;;10.97;100.00;98929.41;1720510;82;24967;-93
2022/10/05 06:52:40;;;;;;;;;;;;;;;11.09;100.00;98922.09;1725358;82;22111;-92
2022/10/05 06:55:10;;;;;;;;;;;;;;;11.19;100.00;98924.48;1719934;82;24476;-92
2022/10/05 06:57:55;;;;;;;;;;;;;;;11.27;100.00;98914.36;1725927;82;20250;-93
2022/10/05 07:00:28;;;;;;;;;;;;;;;11.34;100.00;98929.22;1709956;83;24879;-92
2022/10/05 07:03:15;;;;;;;;;;;;;;;11.44;100.00;98938.16;1729187;82;22679;-94
2022/10/05 07:06:12;;;;;;;;;;;;;;;11.51;100.00;98943.84;1724961;82;26041;-93
2022/10/05 07:12:09;;;;;;;;;;;;;;;11.69;100.00;98932.97;1709253;82;20226;-92
2022/10/05 07:14:59;;;;;;;;;;;;;;;11.79;100.00;98929.76;1689122;84;25007;-92
2022/10/05 07:20:31;;;;;;;;;;;;;;;11.92;100.00;98929.31;1705976;84;25954;-93
2022/10/05 07:23:14;;;;;;;;;;;;;;;11.96;100.00;98935.56;1696476;84;24507;-92
2022/10/05 07:26:00;;;;;;;;;;;;;;;12.03;100.00;98939.45;1700156;84;20516;-91
2022/10/05 07:28:45;;;;;;;;;;;;;;;12.16;100.00;98941.59;1686917;84;24898;-93
2022/10/05 07:31:30;;;;;;;;;;;;;;;12.29;100.00;98931.11;1686156;84;20190;-92
2022/10/05 07:34:01;;;;;;;;;;;;;;;12.41;100.00;98928.95;1697495;84;26028;-91
2022/10/05 07:39:43;;;;;;;;;;;;;;;12.71;100.00;98924.64;1717645;83;20464;-92
2022/10/05 07:42:09;;;;;;;;;;;;;;;12.84;100.00;98928.09;1702507;83;24771;-92
2022/10/05 07:44:51;;;;;;;;;;;;;;;12.95;100.00;98938.67;1683806;84;21930;-92
2022/10/05 07:47:26;;;;;;;;;;;;;;;13.05;100.00;98939.31;1681554;84;27008;-93
2022/10/05 07:50:29;;;;;;;;;;;;;;;13.14;100.00;98946.12;1690481;83;24502;-93
2022/10/05 07:53:02;;;;;;;;;;;;;;;13.21;100.00;98942.55;1678411;85;20245;-92
2022/10/05 07:55:33;;;;;;;;;;;;;;;13.30;100.00;98936.65;1697492;84;24764;-93
2022/10/05 07:58:19;;;;;;;;;;;;;;;13.36;100.00;98929.63;1684643;84;22011;-92
2022/10/05 08:01:08;;;;;;;;;;;;;;;13.36;100.00;98917.30;1707341;84;26035;-92
2022/10/05 08:03:48;;;;;;;;;;;;;;;13.38;100.00;98916.72;1709088;82;24436;-92
2022/10/05 08:06:39;;;;;;;;;;;;;;;13.34;100.00;98913.96;1686826;84;20246;-92
2022/10/05 08:09:19;;;;;;;;;;;;;;;13.34;100.00;98905.23;1717372;83;25389;-93
2022/10/05 08:11:59;;;;;;;;;;;;;;;13.39;100.00;98907.89;1686305;83;22879;-94
2022/10/05 08:14:34;;;;;;;;;;;;;;;13.45;100.00;98913.17;1668354;85;25990;-93
2022/10/05 08:17:03;;;;;;;;;;;;;;;13.52;100.00;98924.92;1666378;85;24488;-92
2022/10/05 08:19:31;;;;;;;;;;;;;;;13.60;100.00;98914.66;1670534;85;20465;-92
2022/10/05 08:24:50;;;;;;;;;;;;;;;13.77;100.00;98915.55;1705964;83;22002;-93
2022/10/05 08:27:25;;;;;;;;;;;;;;;13.83;100.00;98916.89;1691995;83;26059;-93
2022/10/05 08:30:12;;;;;;;;;;;;;;;13.93;100.00;98922.28;1683181;84;24538;-92
2022/10/05 08:32:40;;;;;;;;;;;;;;;14.01;100.00;98926.50;1689282;84;20263;-93
2022/10/05 08:35:11;;;;;;;;;;;;;;;14.07;100.00;98937.38;1715049;83;24857;-92
2022/10/05 08:37:39;;;;;;;;;;;;;;;14.16;100.00;98943.75;1677111;85;22084;-92
2022/10/05 08:40:25;;;;;;;;;;;;;;;14.27;100.00;98954.30;1711377;83;26096;-94
2022/10/05 08:43:02;;;;;;;;;;;;;;;14.36;100.00;98955.38;1671818;85;24435;-93
2022/10/05 08:45:56;;;;;;;;;;;;;;;14.46;100.00;98958.53;1699816;83;20235;-92
2022/10/05 08:48:40;;;;;;;;;;;;;;;14.52;100.00;98955.42;1698933;83;24791;-93
2022/10/05 08:51:21;;;;;;;;;;;;;;;14.61;100.00;98965.27;1689403;83;22102;-93
2022/10/05 08:53:54;;;;;;;;;;;;;;;14.68;100.00;98960.33;1683671;85;26613;-93
2022/10/05 08:56:36;;;;;;;;;;;;;;;14.69;100.00;98959.86;1688841;85;24586;-92
2022/10/05 08:59:09;;;;;;;;;;;;;;;14.74;100.00;98965.60;1709611;83;20166;-94
2022/10/05 09:01:49;;;;;;;;;;;;;;;14.77;100.00;98960.95;1667952;85;24790;-92
2022/10/05 09:04:39;;;;;;;;;;;;;;;14.81;100.00;98958.42;1691597;84;20494;-92
2022/10/05 09:07:39;;;;;;;;;;;;;;;14.86;100.00;98962.02;1704616;83;26669;-93
2022/10/05 09:13:08;;;;;;;;;;;;;;;15.09;100.00;98959.72;1707437;81;20220;-92
2022/10/05 09:18:53;;;;;;;;;;;;;;;15.16;100.00;98958.27;1718112;82;22037;-94
2022/10/05 09:21:42;;;;;;;;;;;;;;;15.22;100.00;98953.80;1730306;82;26944;-92
2022/10/05 09:24:33;;;;;;;;;;;;;;;15.25;100.00;98960.16;1703290;83;20221;-91
2022/10/05 09:27:02;;;;;;;;;;;;;;;15.32;100.00;98954.76;1716354;83;20279;-92
2022/10/05 09:29:53;;;;;;;;;;;;;;;15.39;100.00;98947.16;1708699;83;24877;-91
2022/10/05 09:32:32;;;;;;;;;;;;;;;15.39;100.00;98948.00;1724622;82;22058;-93
2022/10/05 09:35:28;;;;;;;;;;;;;;;15.39;100.00;98946.69;1719795;82;26776;-92
2022/10/05 09:38:18;;;;;;;;;;;;;;;15.38;100.00;98945.52;1714192;83;24492;-93
2022/10/05 09:41:20;;;;;;;;;;;;;;;15.38;100.00;98947.64;1715886;83;20180;-93
2022/10/05 09:43:51;;;;;;;;;;;;;;;15.49;100.00;98943.65;1691474;83;24804;-92
2022/10/05 09:49:20;;;;;;;;;;;;;;;15.57;100.00;98932.99;1704033;83;26110;-92
2022/10/05 09:52:11;;;;;;;;;;;;;;;15.63;100.00;98925.89;1711955;82;24474;-93
2022/10/05 09:54:46;;;;;;;;;;;;;;;15.69;100.00;98924.91;1714347;82;20283;-92
2022/10/05 09:57:39;;;;;;;;;;;;;;;15.82;100.00;98928.66;1711873;83;25495;-92
2022/10/05 10:03:37;;;;;;;;;;;;;;;16.08;100.00;98929.14;1735535;82;26044;-92
2022/10/05 10:06:10;;;;;;;;;;;;;;;16.12;100.00;98919.98;1709244;83;24537;-92
2022/10/05 10:12:03;;;;;;;;;;;;;;;16.24;100.00;98913.67;1731677;82;24778;-94
2022/10/05 10:14:30;;;;;;;;;;;;;;;16.36;100.00;98921.88;1699743;83;22061;-93
2022/10/05 10:17:15;;;;;;;;;;;;;;;16.42;100.00;98921.83;1708850;83;25879;-93
2022/10/05 10:22:54;;;;;;;;;;;;;;;16.47;100.00;98916.50;1729927;82;20174;-93
2022/10/05 10:25:42;;;;;;;;;;;;;;;16.46;100.00;98920.59;1730895;82;24724;-93
2022/10/05 10:28:29;;;;;;;;;;;;;;;16.46;100.00;98917.95;1715573;82;22145;-92
2022/10/05 10:31:09;;;;;;;;;;;;;;;16.47;100.00;98921.79;1717353;82;25685;-92
2022/10/05 10:36:41;;;;;;;;;;;;;;;16.50;100.00;98925.95;1722069;82;20236;-93
2022/10/05 10:39:38;;;;;;;;;;;;;;;16.49;100.00;98926.92;1723510;82;24752;-93
2022/10/05 10:42:26;;;;;;;;;;;;;;;16.51;100.00;98931.59;1733043;82;22049;-93
2022/10/05 10:45:18;;;;;;;;;;;;;;;16.53;100.00;98933.63;1719874;83;25991;-93
2022/10/05 10:47:48;;;;;;;;;;;;;;;16.58;100.00;98936.71;1716684;82;24502;-92
2022/10/05 10:50:27;;;;;;;;;;;;;;;16.62;100.00;98939.47;1715891;82;20417;-93
2022/10/05 10:56:15;;;;;;;;;;;;;;;16.73;100.00;98938.89;1720670;82;22001;-92
2022/10/05 10:59:00;;;;;;;;;;;;;;;16.78;100.00;98942.45;1719120;83;26172;-92
2022/10/05 11:01:38;;;;;;;;;;;;;;;16.79;100.00;98943.30;1718787;82;24433;-92
2022/10/05 11:04:19;;;;;;;;;;;;;;;16.86;100.00;98947.05;1684484;84;20464;-93
2022/10/05 11:06:50;;;;;;;;;;;;;;;16.92;100.00;98947.84;1719530;83;24807;-92
2022/10/05 11:09:41;;;;;;;;;;;;;;;16.93;100.00;98937.62;1721605;82;22063;-93
2022/10/05 11:12:34;;;;;;;;;;;;;;;17.05;100.00;98945.32;1723764;82;26045;-92
2022/10/05 11:15:04;;;;;;;;;;;;;;;17.07;100.00;98940.71;1696291;83;24464;-92
2022/10/05 11:17:49;;;;;;;;;;;;;;;17.12;100.00;98939.84;1695100;84;20238;-92
2022/10/05 11:20:54;;;;;;;;;;;;;;;17.20;100.00;98940.95;1710233;84;24796;-92
2022/10/05 11:23:36;;;;;;;;;;;;;;;17.24;100.00;98935.77;1697057;84;22819;-92
2022/10/05 11:26:34;;;;;;;;;;;;;;;17.30;100.00;98933.39;1691576;83;26955;-92
2022/10/05 11:32:09;;;;;;;;;;;;;;;17.35;100.00;98924.55;1717549;83;20225;-92
2022/10/05 11:38:10;;;;;;;;;;;;;;;17.59;100.00;98922.83;1713629;82;21988;-92
2022/10/05 11:40:58;;;;;;;;;;;;;;;17.72;100.00;98928.73;1694860;84;26011;-92
2022/10/05 11:43:46;;;;;;;;;;;;;;;17.83;100.00;98925.94;1698100;84;24390;-93
2022/10/05 11:46:18;;;;;;;;;;;;;;;17.88;100.00;98919.72;1714953;83;20222;-93
2022/10/05 11:49:06;;;;;;;;;;;;;;;17.91;100.00;98920.75;1689092;84;24646;-92
2022/10/05 11:51:47;;;;;;;;;;;;;;;17.96;100.00;98915.03;1682890;84;21988;-93
2022/10/05 11:54:46;;;;;;;;;;;;;;;18.01;100.00;98914.59;1721247;83;26857;-92
2022/10/05 11:57:17;;;;;;;;;;;;;;;18.06;100.00;98912.36;1724349;83;24673;-94
2022/10/05 12:00:01;;;;;;;;;;;;;;;18.09;100.00;98908.11;1696854;83;20223;-92
2022/10/05 12:05:57;;;;;;;;;;;;;;;18.17;100.00;98913.52;1690138;84;22761;-94
2022/10/05 12:08:37;;;;;;;;;;;;;;;18.19;100.00;98915.06;1719272;83;26805;-92
2022/10/05 12:11:21;;;;;;;;;;;;;;;18.21;100.00;98922.38;1689785;84;24235;-92
2022/10/05 12:13:50;;;;;;;;;;;;;;;18.28;100.00;98919.97;1689209;82;20174;-92
2022/10/05 12:16:30;;;;;;;;;;;;;;;18.32;100.00;98918.73;1700269;83;25786;-92
2022/10/05 12:19:03;;;;;;;;;;;;;;;18.27;100.00;98917.00;1728782;82;22639;-94
2022/10/05 12:21:50;;;;;;;;;;;;;;;18.25;100.00;98911.84;1729533;82;25834;-93
2022/10/05 12:24:22;;;;;;;;;;;;;;;18.23;100.00;98907.16;1736409;82;24496;-93
2022/10/05 12:27:03;;;;;;;;;;;;;;;18.21;100.00;98913.11;1692477;82;20197;-92
2022/10/05 12:29:57;;;;;;;;;;;;;;;18.26;100.00;98908.70;1695926;83;24746;-92
2022/10/05 12:32:36;;;;;;;;;;;;;;;18.26;100.00;98907.38;1710682;83;22046;-93
2022/10/05 12:35:17;;;;;;;;;;;;;;;18.25;100.00;98904.37;1690640;83;25985;-93
2022/10/05 12:37:51;;;;;;;;;;;;;;;18.24;100.00;98908.00;1728458;82;24437;-93
2022/10/05 12:40:53;;;;;;;;;;;;;;;18.17;100.00;98901.11;1706518;83;20269;-93
2022/10/05 12:43:33;;;;;;;;;;;;;;;18.12;100.00;98895.89;1741501;81;24753;-93
2022/10/05 12:46:33;;;;;;;;;;;;;;;18.06;100.00;98889.36;1700822;83;21979;-94
2022/10/05 12:49:07;;;;;;;;;;;;;;;17.99;100.00;98885.63;1704809;83;26039;-92
2022/10/05 12:51:38;;;;;;;;;;;;;;;17.94;100.00;98875.47;1724166;82;23723;-93
2022/10/05 12:57:03;;;;;;;;;;;;;;;17.83;100.00;98877.44;1733816;82;24801;-91
2022/10/05 13:02:45;;;;;;;;;;;;;;;17.75;100.00;98870.67;1627848;87;22817;-92
2022/10/05 13:05:36;;;;;;;;;;;;;;;17.77;100.00;98862.11;1632929;87;24419;-92
2022/10/05 13:08:07;;;;;;;;;;;;;;;17.77;100.00;98864.77;1675146;83;20219;-92
2022/10/05 13:10:38;;;;;;;;;;;;;;;17.75;100.00;98862.25;1703581;83;24794;-93
2022/10/05 13:13:22;;;;;;;;;;;;;;;17.73;100.00;98862.86;1695365;83;21961;-92
2022/10/05 13:15:50;;;;;;;;;;;;;;;17.70;100.00;98855.70;1697855;82;26055;-92
2022/10/05 13:18:38;;;;;;;;;;;;;;;17.66;100.00;98849.87;1708880;84;24524;-92
2022/10/05 13:21:05;;;;;;;;;;;;;;;17.64;100.00;98849.16;1683875;84;20288;-93
2022/10/05 13:24:00;;;;;;;;;;;;;;;17.59;100.00;98842.11;1696309;84;24807;-93
2022/10/05 13:26:34;;;;;;;;;;;;;;;17.57;100.00;98844.89;1703415;84;21983;-92
2022/10/05 13:29:21;;;;;;;;;;;;;;;17.55;100.00;98836.27;1716597;83;28073;-91
2022/10/05 13:31:50;;;;;;;;;;;;;;;17.55;100.00;98831.46;1686031;83;23922;-92
2022/10/05 13:34:37;;;;;;;;;;;;;;;17.50;100.00;98833.22;1688466;84;20191;-93
2022/10/05 13:37:35;;;;;;;;;;;;;;;17.49;100.00;98834.67;1693779;84;25532;-92
2022/10/05 13:40:03;;;;;;;;;;;;;;;17.47;100.00;98833.97;1690586;84;21985;-92
2022/10/05 13:42:51;;;;;;;;;;;;;;;17.39;100.00;98845.27;1691190;83;26031;-92
2022/10/05 13:45:24;;;;;;;;;;;;;;;17.40;100.00;98840.81;1694351;84;24421;-92
2022/10/05 13:48:10;;;;;;;;;;;;;;;17.40;100.00;98835.00;1690883;84;20230;-92
2022/10/05 13:50:58;;;;;;;;;;;;;;;17.40;100.00;98830.23;1687705;84;24759;-91
2022/10/05 13:53:29;;;;;;;;;;;;;;;17.40;100.00;98824.94;1693046;84;22800;-92
2022/10/05 13:56:16;;;;;;;;;;;;;;;17.41;100.00;98817.32;1692514;84;26077;-92
2022/10/05 13:59:13;;;;;;;;;;;;;;;17.39;100.00;98819.30;1692968;84;24503;-90
2022/10/05 14:01:48;;;;;;;;;;;;;;;17.36;100.00;98830.98;1692566;84;20226;-92
2022/10/05 14:04:24;;;;;;;;;;;;;;;17.34;100.00;98833.43;1692495;84;24766;-92
2022/10/05 14:10:03;;;;;;;;;;;;;;;17.30;100.00;98831.53;1690150;84;22109;-92
2022/10/05 14:12:57;;;;;;;;;;;;;;;17.25;100.00;98832.44;1694592;84;23962;-92
2022/10/05 14:15:42;;;;;;;;;;;;;;;17.20;100.00;98832.51;1708237;82;20329;-92
2022/10/05 14:18:23;;;;;;;;;;;;;;;17.13;100.00;98831.73;1695751;83;25650;-91
2022/10/05 14:24:25;;;;;;;;;;;;;;;17.08;100.00;98828.67;1692738;84;26821;-92
2022/10/05 14:27:24;;;;;;;;;;;;;;;17.09;100.00;98817.13;1684094;84;24543;-91
2022/10/05 14:33:18;;;;;;;;;;;;;;;17.02;100.00;98817.84;1691705;84;24818;-91
2022/10/05 14:36:06;;;;;;;;;;;;;;;16.99;100.00;98816.77;1693903;84;22243;-90
2022/10/05 14:39:00;;;;;;;;;;;;;;;16.93;100.00;98812.03;1693164;83;26069;-91
2022/10/05 14:45:05;;;;;;;;;;;;;;;16.80;100.00;98803.55;1681811;84;20278;-92
2022/10/05 14:47:58;;;;;;;;;;;;;;;16.75;100.00;98805.77;1687852;84;24736;-92
2022/10/05 14:50:31;;;;;;;;;;;;;;;16.71;100.00;98807.83;1691007;84;22094;-91
2022/10/05 14:53:16;;;;;;;;;;;;;;;16.67;100.00;98803.80;1688500;84;26017;-92
2022/10/05 14:55:44;;;;;;;;;;;;;;;16.62;100.00;98798.92;1693122;84;24472;-92
2022/10/05 15:01:02;;;;;;;;;;;;;;;16.58;100.00;98808.04;1667102;84;20530;-92
2022/10/05 15:03:53;;;;;;;;;;;;;;;16.56;100.00;98806.52;1691611;84;21992;-91
2022/10/05 15:09:33;;;;;;;;;;;;;;;16.48;100.00;98803.22;1689921;84;20597;-91
2022/10/05 15:12:21;;;;;;;;;;;;;;;16.48;100.00;98808.98;1695115;84;20229;-91
2022/10/05 15:14:49;;;;;;;;;;;;;;;16.46;100.00;98798.58;1689904;84;24742;-92
2022/10/05 15:17:17;;;;;;;;;;;;;;;16.41;100.00;98788.06;1705036;82;22188;-92
2022/10/05 15:22:45;;;;;;;;;;;;;;;16.32;100.00;98787.05;1716203;83;21425;-92
2022/10/05 15:25:30;;;;;;;;;;;;;;;16.26;100.00;98785.78;1726998;83;20320;-91
2022/10/05 15:28:07;;;;;;;;;;;;;;;16.18;100.00;98781.67;1721538;83;25595;-91
2022/10/05 15:30:38;;;;;;;;;;;;;;;16.16;100.00;98778.31;1724151;81;22523;-92
2022/10/05 15:33:14;;;;;;;;;;;;;;;16.13;100.00;98779.08;1725525;83;26091;-92
2022/10/05 15:36:10;;;;;;;;;;;;;;;16.10;100.00;98777.52;1724687;83;24374;-91
2022/10/05 15:41:48;;;;;;;;;;;;;;;16.06;100.00;98776.61;1714884;83;25477;-91
2022/10/05 15:47:47;;;;;;;;;;;;;;;15.89;100.00;98772.78;1723472;83;22117;-91
2022/10/05 15:50:31;;;;;;;;;;;;;;;15.86;100.00;98769.11;1726190;83;24578;-91
2022/10/05 16:09:35;;;;;;;;;;;;;;;15.59;100.00;98757.79;1689420;84;20282;-91
2022/10/05 16:12:10;;;;;;;;;;;;;;;15.52;100.00;98755.31;1721798;83;25373;-91
2022/10/05 16:17:56;;;;;;;;;;;;;;;15.43;100.00;98754.27;1714262;82;26789;-90
2022/10/05 16:20:24;;;;;;;;;;;;;;;15.37;100.00;98749.52;1690650;84;25248;-92